KYNG/YNG METAR and TAF weather

Enter ICAO airport designator
Station Type Date Time Source
KYNG METAR 2021/01/27 13:51 UTC NOAA

KYNG 271351Z 02008KT 6SM -SN FEW011 OVC030 M03/M06 A3014 RMK AO2 SLP219 P0000 T10281061


Station Type Date Time Source
KYNG Decoded METAR 2021/01/27 13:51 UTC NOAA

YOUNGSTOWN-WARREN REG AIRPRT, OH, United States (KYNG) 41-15N 080-40W 360M
Jan 27, 2021 - 08:51 AM EST / 2021.01.27 1351 UTC
Wind: from the NNE (020 degrees) at 9 MPH (8 KT):0
Visibility: 6 mile(s):0
Sky conditions: overcast
Weather: light snow
Precipitation last hour: A trace
Temperature: 27.0 F (-2.8 C)
Windchill: 17 F (-8 C):1
Dew Point: 21.0 F (-6.1 C)
Relative Humidity: 77%
Pressure (altimeter): 30.14 in. Hg (1020 hPa)
ob: KYNG 271351Z 02008KT 6SM -SN FEW011 OVC030 M03/M06 A3014 RMK AO2 SLP219 P0000 T10281061
cycle: 14

Station Type Date Time Source
KYNG TAF 2021/01/27 12:27 UTC NOAA

TAF KYNG 271124Z 2712/2812 33007KT P6SM VCSH OVC015
FM280100 34008KT P6SM BKN025
FM280300 35009KT P6SM BKN015

Example: see airport list